createdAt,value
2019-01-04T00:01:48.089Z,-0.90
2019-01-04T00:04:25.179Z,-0.90
2019-01-04T00:06:55.359Z,-0.80
2019-01-04T00:09:25.385Z,-0.80
2019-01-04T00:11:55.451Z,-0.80
2019-01-04T00:14:25.608Z,-0.70
2019-01-04T00:16:55.718Z,-0.70
2019-01-04T00:19:26.295Z,-0.80
2019-01-04T00:21:56.369Z,-0.80
2019-01-04T00:24:26.367Z,-0.90
2019-01-04T00:26:56.467Z,-0.80
2019-01-04T00:29:26.660Z,-0.70
2019-01-04T00:31:57.965Z,-0.80
2019-01-04T00:34:28.089Z,-0.80
2019-01-04T00:36:58.167Z,-0.90
2019-01-04T00:39:28.774Z,-0.70
2019-01-04T00:41:58.858Z,-0.80
2019-01-04T00:44:28.991Z,-0.80
2019-01-04T00:46:59.174Z,-0.80
2019-01-04T00:49:29.277Z,-0.80
2019-01-04T00:51:59.459Z,-0.80
2019-01-04T00:54:29.521Z,-0.70
2019-01-04T00:57:34.063Z,-0.70
2019-01-04T01:01:27.143Z,-0.70
2019-01-04T01:05:06.144Z,-0.80
2019-01-04T01:08:32.878Z,-0.70
2019-01-04T01:11:44.268Z,-0.90
2019-01-04T01:15:10.472Z,-0.80
2019-01-04T01:18:34.144Z,-0.80
2019-01-04T01:22:18.459Z,-0.80
2019-01-04T01:25:46.772Z,-0.80
2019-01-04T01:29:23.172Z,-0.80
2019-01-04T01:32:46.071Z,-0.70
2019-01-04T01:36:06.615Z,-0.70
2019-01-04T01:39:35.724Z,-0.60
2019-01-04T01:43:25.802Z,-0.60
2019-01-04T01:46:37.586Z,-0.70
2019-01-04T01:50:02.330Z,-0.80
2019-01-04T01:52:41.560Z,-0.60
2019-01-04T01:55:11.663Z,-0.70
2019-01-04T01:57:41.736Z,-0.70
2019-01-04T02:00:11.897Z,-0.60
2019-01-04T02:02:41.993Z,-0.70
2019-01-04T02:05:12.009Z,-0.70
2019-01-04T02:07:42.783Z,-0.70
2019-01-04T02:10:13.008Z,-0.70
2019-01-04T02:12:43.028Z,-0.70
2019-01-04T02:15:13.494Z,-0.70
2019-01-04T02:17:43.576Z,-0.70
2019-01-04T02:20:13.704Z,-0.60
2019-01-04T02:22:43.678Z,-0.70
2019-01-04T02:25:14.027Z,-0.60
2019-01-04T02:27:44.184Z,-0.70
2019-01-04T02:30:14.297Z,-0.60
2019-01-04T02:32:44.389Z,-0.70
2019-01-04T02:35:14.412Z,-0.60
2019-01-04T02:37:44.411Z,-0.70
2019-01-04T02:40:14.414Z,-0.60
2019-01-04T02:42:44.366Z,-0.60
2019-01-04T02:45:14.553Z,-0.60
2019-01-04T02:47:44.599Z,-0.60
2019-01-04T02:50:14.535Z,-0.50
2019-01-04T02:52:44.474Z,-0.70
2019-01-04T02:55:14.515Z,-0.70
2019-01-04T02:57:44.606Z,-0.60
2019-01-04T03:00:14.596Z,-0.70
2019-01-04T03:02:44.623Z,-0.70
2019-01-04T03:05:14.786Z,-0.70
2019-01-04T03:07:44.706Z,-0.70
2019-01-04T03:10:14.714Z,-0.70
2019-01-04T03:12:44.757Z,-0.80
2019-01-04T03:15:14.989Z,-0.80
2019-01-04T03:17:45.972Z,-0.70
2019-01-04T03:20:16.074Z,-0.80
2019-01-04T03:22:46.047Z,-0.80
2019-01-04T03:25:16.445Z,-0.90
2019-01-04T03:27:46.555Z,-0.90
2019-01-04T03:30:16.738Z,-0.90
2019-01-04T03:32:46.856Z,-0.90
2019-01-04T03:35:16.993Z,-0.80
2019-01-04T03:37:46.932Z,-0.60
2019-01-04T03:40:16.980Z,-0.60
2019-01-04T03:42:47.077Z,-0.60
2019-01-04T03:45:17.249Z,-0.70
2019-01-04T03:47:47.305Z,-0.80
2019-01-04T03:50:17.434Z,-0.80
2019-01-04T03:52:47.633Z,-0.80
2019-01-04T03:55:18.463Z,-0.70
2019-01-04T03:57:48.522Z,-0.70
2019-01-04T04:00:18.801Z,-0.70
2019-01-04T04:02:48.894Z,-0.70
2019-01-04T04:05:18.924Z,-0.70
2019-01-04T04:07:48.938Z,-0.60
2019-01-04T04:10:18.991Z,-0.60
2019-01-04T04:12:48.988Z,-0.70
2019-01-04T04:15:19.004Z,-0.70
2019-01-04T04:17:49.046Z,-0.80
2019-01-04T04:20:19.163Z,-0.50
2019-01-04T04:22:49.104Z,-0.60
2019-01-04T04:25:19.141Z,-0.80
2019-01-04T04:27:49.255Z,-0.70
2019-01-04T04:30:19.370Z,-0.60
2019-01-04T04:32:49.432Z,-0.60
2019-01-04T04:35:19.577Z,-0.70
2019-01-04T04:37:49.634Z,-0.70
2019-01-04T04:40:19.553Z,-0.60
2019-01-04T04:42:49.647Z,-0.70
2019-01-04T04:45:19.677Z,-0.80
2019-01-04T04:47:49.641Z,-0.80
2019-01-04T04:50:19.657Z,-0.70
2019-01-04T04:52:49.703Z,-0.70
2019-01-04T04:55:19.822Z,-0.60
2019-01-04T04:57:49.887Z,-0.60
2019-01-04T05:00:19.923Z,-0.70
2019-01-04T05:02:49.995Z,-0.70
2019-01-04T05:05:20.211Z,-0.60
2019-01-04T05:07:50.222Z,-0.60
2019-01-04T05:10:20.434Z,-0.70
2019-01-04T05:12:50.573Z,-0.60
2019-01-04T05:15:20.528Z,-0.70
2019-01-04T05:17:50.451Z,-0.70
2019-01-04T05:20:20.576Z,-0.70
2019-01-04T05:22:50.550Z,-0.80
2019-01-04T05:25:20.661Z,-0.60
2019-01-04T05:27:50.770Z,-0.60
2019-01-04T05:30:20.804Z,-0.50
2019-01-04T05:32:50.808Z,-0.70
2019-01-04T05:35:20.770Z,-0.70
2019-01-04T05:37:50.793Z,-0.60
2019-01-04T05:40:20.944Z,-0.70
2019-01-04T05:42:51.118Z,-0.60
2019-01-04T05:45:21.155Z,-0.70
2019-01-04T05:47:51.160Z,-0.70
2019-01-04T05:50:21.438Z,-0.60
2019-01-04T05:52:51.467Z,-0.70
2019-01-04T05:55:21.398Z,-0.50
2019-01-04T05:57:51.406Z,-0.70
2019-01-04T06:00:21.428Z,-0.60
2019-01-04T06:02:51.454Z,-0.70
2019-01-04T06:05:21.504Z,-0.50
2019-01-04T06:07:51.463Z,-0.50
2019-01-04T06:10:21.443Z,-0.60
2019-01-04T06:12:51.477Z,-0.50
2019-01-04T06:15:21.406Z,-0.70
2019-01-04T06:17:51.352Z,-0.70
2019-01-04T06:20:21.357Z,-0.60
2019-01-04T06:22:51.400Z,-0.60
2019-01-04T06:25:21.633Z,-0.60
2019-01-04T06:27:51.609Z,-0.50
2019-01-04T06:30:21.673Z,-0.50
2019-01-04T06:32:51.763Z,-0.60
2019-01-04T06:35:21.675Z,-0.50
2019-01-04T06:37:51.595Z,-0.50
2019-01-04T06:40:21.527Z,-0.40
2019-01-04T06:42:51.541Z,-0.50
2019-01-04T06:45:21.532Z,-0.50
2019-01-04T06:47:51.626Z,-0.60
2019-01-04T06:50:21.658Z,-0.60
2019-01-04T06:52:51.680Z,-0.60
2019-01-04T06:56:07.290Z,-0.60
2019-01-04T06:58:37.416Z,-0.50
2019-01-04T07:01:07.474Z,-0.50
2019-01-04T07:03:37.532Z,-0.40
2019-01-04T07:06:07.587Z,-0.50
2019-01-04T07:08:37.741Z,-0.40
2019-01-04T07:11:07.937Z,-0.70
2019-01-04T07:13:37.998Z,-0.50
2019-01-04T07:16:08.119Z,-0.40
2019-01-04T07:18:38.250Z,-0.50
2019-01-04T07:21:08.348Z,-0.60
2019-01-04T07:23:38.313Z,-0.60
2019-01-04T07:26:08.243Z,-0.40
2019-01-04T07:28:38.254Z,-0.50
2019-01-04T07:31:08.586Z,-0.50
2019-01-04T07:33:38.685Z,-0.50
2019-01-04T07:36:08.898Z,-0.60
2019-01-04T07:38:38.909Z,-0.50
2019-01-04T07:41:08.937Z,-0.40
2019-01-04T07:43:38.885Z,-0.50
2019-01-04T07:46:08.830Z,-0.50
2019-01-04T07:48:38.835Z,-0.40
2019-01-04T07:51:08.766Z,-0.40
2019-01-04T07:53:38.731Z,-0.40
2019-01-04T07:56:08.654Z,-0.40
2019-01-04T07:58:38.785Z,-0.50
2019-01-04T08:01:09.762Z,-0.50
2019-01-04T08:03:39.789Z,-0.50
2019-01-04T08:06:09.896Z,-0.50
2019-01-04T08:08:39.855Z,-0.50
2019-01-04T08:11:09.940Z,-0.50
2019-01-04T08:13:40.003Z,-0.40
2019-01-04T08:16:09.999Z,-0.50
2019-01-04T08:18:39.962Z,-0.40
2019-01-04T08:21:09.967Z,-0.30
2019-01-04T08:23:39.982Z,-0.40
2019-01-04T08:26:11.149Z,-0.40
2019-01-04T08:28:41.180Z,-0.40
2019-01-04T08:31:11.282Z,-0.40
2019-01-04T08:33:41.391Z,-0.30
2019-01-04T08:36:11.621Z,-0.40
2019-01-04T08:38:41.589Z,-0.20
2019-01-04T08:41:11.539Z,-0.20
2019-01-04T08:43:41.571Z,-0.10
2019-01-04T08:46:11.651Z,-0.30
2019-01-04T08:48:41.726Z,-0.30
2019-01-04T08:51:11.647Z,-0.30
2019-01-04T08:53:59.392Z,-0.30
2019-01-04T08:56:33.913Z,-0.40
2019-01-04T08:59:04.143Z,-0.20
2019-01-04T09:01:34.203Z,-0.30
2019-01-04T09:04:04.387Z,0.30
2019-01-04T09:06:35.965Z,0.10
2019-01-04T09:09:08.339Z,0.00
2019-01-04T09:11:38.406Z,0.00
2019-01-04T09:14:08.405Z,0.00
2019-01-04T09:16:39.441Z,-0.10
2019-01-04T09:19:09.474Z,-0.10
2019-01-04T09:21:39.565Z,0.00
2019-01-04T09:24:09.753Z,0.00
2019-01-04T09:26:39.865Z,0.10
2019-01-04T09:29:09.992Z,0.00
2019-01-04T09:31:40.069Z,0.00
2019-01-04T09:34:10.209Z,-0.10
2019-01-04T09:36:40.143Z,-0.10
2019-01-04T09:39:10.237Z,-0.20
2019-01-04T09:41:43.611Z,-0.20
2019-01-04T09:44:13.658Z,-0.30
2019-01-04T09:46:43.711Z,-0.30
2019-01-04T09:49:13.745Z,-0.20
2019-01-04T09:51:43.861Z,-0.20
2019-01-04T09:54:14.734Z,-0.20
2019-01-04T09:56:44.692Z,-0.20
2019-01-04T09:59:14.690Z,-0.10
2019-01-04T10:01:44.745Z,-0.10
2019-01-04T10:04:14.881Z,0.00
2019-01-04T10:06:44.994Z,-0.10
2019-01-04T10:09:14.930Z,-0.10
2019-01-04T10:11:44.964Z,0.00
2019-01-04T10:14:14.916Z,-0.10
2019-01-04T10:16:44.992Z,-0.30
2019-01-04T10:19:15.420Z,-0.10
2019-01-04T10:21:45.516Z,-0.10
2019-01-04T10:24:15.590Z,-0.20
2019-01-04T10:26:46.550Z,-0.20
2019-01-04T10:29:16.511Z,-0.20
2019-01-04T10:31:46.630Z,-0.20
2019-01-04T10:34:16.664Z,0.00
2019-01-04T10:36:46.709Z,0.00
2019-01-04T10:39:17.536Z,0.00
2019-01-04T10:41:47.600Z,-0.10
2019-01-04T10:44:18.425Z,0.20
2019-01-04T10:46:49.606Z,0.30
2019-01-04T10:49:19.542Z,0.10
2019-01-04T10:51:49.511Z,0.30
2019-01-04T10:54:19.724Z,0.30
2019-01-04T10:56:49.686Z,0.20
2019-01-04T10:59:19.692Z,0.10
2019-01-04T11:01:49.764Z,0.30
2019-01-04T11:04:22.735Z,0.10
2019-01-04T11:06:52.848Z,0.00
2019-01-04T11:09:23.070Z,0.30
2019-01-04T11:11:53.974Z,0.30
2019-01-04T11:14:23.906Z,0.20
2019-01-04T11:16:54.066Z,0.10
2019-01-04T11:19:24.081Z,0.20
2019-01-04T11:22:48.797Z,0.20
2019-01-04T11:25:59.172Z,0.10
2019-01-04T11:28:53.698Z,-0.10
2019-01-04T11:32:11.362Z,0.00
2019-01-04T11:35:41.546Z,0.10
2019-01-04T11:39:00.133Z,0.00
2019-01-04T11:42:22.058Z,0.00
2019-01-04T11:45:41.305Z,-0.20
2019-01-04T11:49:05.566Z,-0.10
2019-01-04T11:52:30.993Z,0.10
2019-01-04T11:54:59.425Z,0.10
2019-01-04T11:57:29.474Z,0.10
2019-01-04T11:59:59.503Z,0.10
2019-01-04T12:02:29.538Z,0.20
2019-01-04T12:05:01.794Z,0.00
2019-01-04T12:07:32.056Z,-0.10
2019-01-04T12:10:02.144Z,0.00
2019-01-04T12:12:32.268Z,0.10
2019-01-04T12:15:02.284Z,0.10
2019-01-04T12:17:32.401Z,0.20
2019-01-04T12:20:02.471Z,0.30
2019-01-04T12:22:32.451Z,0.50
2019-01-04T12:25:02.381Z,0.40
2019-01-04T12:27:32.427Z,0.40
2019-01-04T12:30:02.464Z,0.40
2019-01-04T12:32:32.452Z,0.20
2019-01-04T12:35:02.570Z,0.40
2019-01-04T12:37:32.710Z,0.50
2019-01-04T12:40:02.793Z,0.40
2019-01-04T12:42:32.726Z,0.40
2019-01-04T12:45:02.846Z,0.50
2019-01-04T12:47:32.780Z,0.60
2019-01-04T12:50:02.955Z,0.60
2019-01-04T12:52:32.947Z,0.30
2019-01-04T12:55:03.089Z,0.30
2019-01-04T12:57:33.075Z,0.30
2019-01-04T13:00:03.225Z,0.20
2019-01-04T13:02:33.214Z,0.20
2019-01-04T13:05:03.362Z,0.10
2019-01-04T13:07:33.423Z,0.20
2019-01-04T13:10:03.517Z,0.20
2019-01-04T13:12:33.607Z,0.40
2019-01-04T13:15:03.968Z,0.30
2019-01-04T13:17:33.981Z,0.20
2019-01-04T13:20:04.109Z,0.40
2019-01-04T13:22:34.271Z,0.30
2019-01-04T13:25:04.499Z,0.50
2019-01-04T13:27:34.509Z,0.40
2019-01-04T13:30:05.438Z,0.20
2019-01-04T13:32:35.539Z,0.30
2019-01-04T13:35:05.797Z,0.30
2019-01-04T13:37:35.879Z,0.20
2019-01-04T13:40:06.557Z,0.20
2019-01-04T13:42:36.593Z,0.30
2019-01-04T13:45:07.456Z,0.40
2019-01-04T13:47:37.728Z,0.30
2019-01-04T13:50:08.145Z,0.40
2019-01-04T13:52:40.404Z,0.30
2019-01-04T13:55:10.407Z,0.10
2019-01-04T13:57:40.416Z,0.20
2019-01-04T14:00:11.198Z,0.20
2019-01-04T14:02:41.707Z,0.20
2019-01-04T14:05:12.505Z,0.20
2019-01-04T14:07:42.467Z,0.30
2019-01-04T14:10:12.603Z,0.20
2019-01-04T14:12:43.749Z,0.10
2019-01-04T14:15:14.109Z,0.10
2019-01-04T14:17:44.181Z,0.10
2019-01-04T14:20:14.312Z,0.20
2019-01-04T14:22:44.309Z,0.00
2019-01-04T14:25:14.544Z,0.10
2019-01-04T14:27:44.586Z,0.10
2019-01-04T14:30:14.742Z,0.00
2019-01-04T14:32:44.890Z,0.20
2019-01-04T14:35:15.072Z,0.10
2019-01-04T14:37:45.168Z,0.10
2019-01-04T14:40:15.360Z,0.20
2019-01-04T14:42:45.299Z,0.10
2019-01-04T14:45:15.453Z,0.10
2019-01-04T14:47:45.473Z,-0.10
2019-01-04T14:50:16.262Z,0.00
2019-01-04T14:52:46.178Z,0.00
2019-01-04T14:55:16.254Z,-0.10
2019-01-04T14:57:46.281Z,-0.10
2019-01-04T15:00:16.365Z,-0.10
2019-01-04T15:02:46.482Z,-0.20
2019-01-04T15:05:16.593Z,-0.10
2019-01-04T15:07:47.067Z,-0.20
2019-01-04T15:10:17.470Z,-0.20
2019-01-04T15:12:47.699Z,0.00
2019-01-04T15:15:18.873Z,0.00
2019-01-04T15:17:48.895Z,-0.10
2019-01-04T15:20:19.182Z,0.00
2019-01-04T15:22:49.245Z,-0.10
2019-01-04T15:25:19.192Z,-0.10
2019-01-04T15:27:49.522Z,0.00
2019-01-04T15:30:19.744Z,0.00
2019-01-04T15:32:49.771Z,0.00
2019-01-04T15:35:19.767Z,0.00
2019-01-04T15:37:50.170Z,0.00
2019-01-04T15:40:20.354Z,-0.10
2019-01-04T15:42:50.482Z,-0.10
2019-01-04T15:45:20.707Z,-0.10
2019-01-04T15:47:51.014Z,-0.20
2019-01-04T15:50:21.181Z,0.00
2019-01-04T15:52:51.250Z,-0.10
2019-01-04T15:55:21.290Z,0.00
2019-01-04T15:57:51.316Z,-0.20
2019-01-04T16:00:21.452Z,0.00
2019-01-04T16:02:51.535Z,0.00
2019-01-04T16:05:22.649Z,-0.10
2019-01-04T16:07:52.884Z,0.00
2019-01-04T16:10:23.172Z,0.00
2019-01-04T16:12:53.322Z,-0.10
2019-01-04T16:15:23.336Z,-0.10
2019-01-04T16:17:53.538Z,-0.10
2019-01-04T16:20:23.627Z,-0.10
2019-01-04T16:22:53.683Z,0.00
2019-01-04T16:25:23.652Z,0.00
2019-01-04T16:27:53.587Z,-0.10
2019-01-04T16:30:23.830Z,0.00
2019-01-04T16:32:54.449Z,0.10
2019-01-04T16:35:24.695Z,0.00
2019-01-04T16:37:54.882Z,-0.20
2019-01-04T16:40:25.042Z,0.00
2019-01-04T16:42:55.208Z,0.10
2019-01-04T16:45:25.278Z,0.10
2019-01-04T16:47:58.681Z,0.10
2019-01-04T16:50:28.996Z,0.10
2019-01-04T16:52:59.508Z,0.00
2019-01-04T16:55:29.619Z,0.30
2019-01-04T16:57:59.968Z,0.50
2019-01-04T17:00:30.001Z,0.30
2019-01-04T17:03:00.225Z,0.20
2019-01-04T17:05:30.314Z,0.10
2019-01-04T17:08:00.382Z,0.10
2019-01-04T17:10:30.350Z,0.10
2019-01-04T17:13:01.074Z,0.20
2019-01-04T17:15:31.161Z,0.00
2019-01-04T17:18:01.782Z,0.00
2019-01-04T17:20:31.854Z,0.00
2019-01-04T17:23:01.955Z,-0.10
2019-01-04T17:25:31.964Z,0.10
2019-01-04T17:28:01.962Z,0.10
2019-01-04T17:30:32.159Z,0.00
2019-01-04T17:33:02.228Z,0.10
2019-01-04T17:35:32.289Z,0.10
2019-01-04T17:38:02.376Z,0.00
2019-01-04T17:40:32.400Z,0.10
2019-01-04T17:43:02.613Z,0.10
2019-01-04T17:45:32.607Z,0.10
2019-01-04T17:48:02.769Z,0.10
2019-01-04T17:50:32.782Z,0.00
2019-01-04T17:53:02.792Z,0.10
2019-01-04T17:55:32.836Z,0.10
2019-01-04T17:58:02.839Z,0.10
2019-01-04T18:00:33.006Z,0.10
2019-01-04T18:03:03.292Z,0.10
2019-01-04T18:05:33.355Z,0.10
2019-01-04T18:08:03.423Z,0.20
2019-01-04T18:10:33.503Z,0.10
2019-01-04T18:13:03.956Z,0.20
2019-01-04T18:15:35.169Z,0.20
2019-01-04T18:18:05.233Z,0.20
2019-01-04T18:20:35.461Z,0.20
2019-01-04T18:23:05.631Z,0.20
2019-01-04T18:25:35.621Z,0.20
2019-01-04T18:28:05.831Z,0.20
2019-01-04T18:30:36.010Z,0.20
2019-01-04T18:33:06.106Z,0.10
2019-01-04T18:35:36.182Z,0.20
2019-01-04T18:38:06.231Z,0.20
2019-01-04T18:40:36.405Z,0.20
2019-01-04T18:43:06.595Z,0.20
2019-01-04T18:45:36.758Z,0.20
2019-01-04T18:48:06.881Z,0.20
2019-01-04T18:50:37.130Z,0.20
2019-01-04T18:53:07.470Z,0.20
2019-01-04T18:55:37.482Z,0.20
2019-01-04T18:58:07.625Z,0.20
2019-01-04T19:00:37.859Z,0.20
2019-01-04T19:03:07.957Z,0.20
2019-01-04T19:05:38.050Z,0.30
2019-01-04T19:08:08.209Z,0.20
2019-01-04T19:10:38.406Z,0.20
2019-01-04T19:13:08.597Z,0.30
2019-01-04T19:15:38.660Z,0.20
2019-01-04T19:18:08.783Z,0.20
2019-01-04T19:20:39.013Z,0.20
2019-01-04T19:23:08.948Z,0.20
2019-01-04T19:25:39.855Z,0.20
2019-01-04T19:28:10.012Z,0.20
2019-01-04T19:30:40.238Z,0.20
2019-01-04T19:33:10.383Z,0.30
2019-01-04T19:35:40.558Z,0.20
2019-01-04T19:38:10.741Z,0.30
2019-01-04T19:40:40.758Z,0.30
2019-01-04T19:43:10.871Z,0.20
2019-01-04T19:45:41.113Z,0.30
2019-01-04T19:48:11.108Z,0.20
2019-01-04T19:50:41.263Z,0.20
2019-01-04T19:53:11.334Z,0.10
2019-01-04T19:55:42.011Z,0.10
2019-01-04T19:58:12.075Z,0.20
2019-01-04T20:00:42.204Z,0.20
2019-01-04T20:03:12.604Z,0.20
2019-01-04T20:06:53.657Z,0.20
2019-01-04T20:10:24.417Z,0.20
2019-01-04T20:14:38.334Z,0.30
2019-01-04T20:17:30.182Z,0.30
2019-01-04T20:20:28.731Z,0.30
2019-01-04T20:23:17.875Z,0.30
2019-01-04T20:26:07.031Z,0.40
2019-01-04T20:28:54.484Z,0.40
2019-01-04T20:31:51.650Z,0.40
2019-01-04T20:34:46.712Z,0.30
2019-01-04T20:37:33.593Z,0.30
2019-01-04T20:40:35.485Z,0.30
2019-01-04T20:43:33.480Z,0.30
2019-01-04T20:46:20.816Z,0.30
2019-01-04T20:49:14.714Z,0.30
2019-01-04T20:51:56.930Z,0.20
2019-01-04T20:54:58.036Z,0.20
2019-01-04T20:58:01.502Z,0.10
2019-01-04T21:00:56.611Z,0.10
2019-01-04T21:04:00.348Z,0.10
2019-01-04T21:06:54.272Z,1.10
2019-01-04T21:09:41.817Z,1.10
2019-01-04T21:12:29.449Z,0.50
2019-01-04T21:15:18.389Z,0.30
2019-01-04T21:18:19.316Z,0.20
2019-01-04T21:21:06.962Z,0.20
2019-01-04T21:23:46.647Z,0.10
2019-01-04T21:26:34.132Z,0.10
2019-01-04T21:29:32.166Z,0.00
2019-01-04T21:32:23.613Z,0.00
2019-01-04T21:35:11.058Z,0.00
2019-01-04T21:37:52.575Z,-0.10
2019-01-04T21:40:40.041Z,0.00
2019-01-04T21:43:28.129Z,0.00
2019-01-04T21:46:31.448Z,0.00
2019-01-04T21:49:35.116Z,-0.10
2019-01-04T21:52:16.224Z,-0.10
2019-01-04T21:55:04.739Z,-0.10
2019-01-04T21:58:10.055Z,-0.20
2019-01-04T22:00:53.631Z,-0.20
2019-01-04T22:03:51.428Z,-0.20
2019-01-04T22:06:38.753Z,-0.10
2019-01-04T22:09:26.238Z,-0.20
2019-01-04T22:12:19.613Z,-0.20
2019-01-04T22:15:17.367Z,-0.20
2019-01-04T22:18:04.978Z,-0.20
2019-01-04T22:20:56.702Z,-0.20
2019-01-04T22:24:01.143Z,-0.20
2019-01-04T22:26:53.619Z,-0.20
2019-01-04T22:29:42.621Z,-0.20
2019-01-04T22:32:34.187Z,-0.20
2019-01-04T22:35:38.153Z,-0.10
2019-01-04T22:38:32.737Z,-0.10
2019-01-04T22:41:27.359Z,-0.10
2019-01-04T22:44:21.857Z,-0.20
2019-01-04T22:47:11.494Z,-0.20
2019-01-04T22:50:10.140Z,-0.10
2019-01-04T22:52:59.044Z,-0.10
2019-01-04T22:55:56.575Z,-0.10
2019-01-04T22:58:43.938Z,-0.10
2019-01-04T23:01:31.218Z,0.00
2019-01-04T23:04:17.390Z,0.00
2019-01-04T23:07:04.754Z,0.00
2019-01-04T23:09:53.752Z,0.00
2019-01-04T23:12:41.322Z,0.00
2019-01-04T23:15:35.949Z,0.00
2019-01-04T23:18:23.297Z,0.10
2019-01-04T23:21:17.948Z,0.10
2019-01-04T23:24:10.264Z,0.10
2019-01-04T23:27:08.249Z,0.10
2019-01-04T23:30:03.161Z,0.10
2019-01-04T23:33:04.135Z,0.10
2019-01-04T23:35:52.258Z,0.10
2019-01-04T23:38:44.217Z,0.20
2019-01-04T23:41:31.839Z,0.10
2019-01-04T23:44:19.198Z,0.10
2019-01-04T23:47:08.365Z,0.20
2019-01-04T23:49:51.351Z,0.20
2019-01-04T23:52:47.788Z,0.20
2019-01-04T23:55:29.599Z,0.30
2019-01-04T23:58:22.989Z,0.20
